Flight Track Log - Related Links

Times and Time Zones

All times are in EDT time to prevent confusion due to time zone crossing. See the LOF3376 flight status page for this flight to view local times or setup timezone preferences in your user account.

Time Position Orientation Groundspeed Altitude Reporting Facility
EDT Latitude Longitude Course Direction KTS MPH feet Rate Location/Type
Mon 06:42:50 AM 38.7292 -90.2742 356° North 158 182 1,300  Level FAA TRACON SMA TRACON (SMA)
Mon 06:43:10 AM 38.7222 -90.2536 113° Southeast 164 189 2,300 2,400 Climbing FAA TRACON SMA TRACON (SMA)
Mon 06:43:30 AM 38.7264 -90.2342 75° East 190 219 2,900 1,650 Climbing FAA TRACON SMA TRACON (SMA)
Mon 06:43:50 AM 38.7419 -90.2219 32° Northeast 214 246 3,400 2,154 Climbing FAA TRACON SMA TRACON (SMA)
Mon 06:44:09 AM 38.7661 -90.2175 North 231 266 4,300 2,250 Climbing FAA TRACON SMA TRACON (SMA)
Mon 06:44:30 AM 38.7867 -90.2136 North 240 276 4,900 2,049 Climbing FAA TRACON SMA TRACON (SMA)
Mon 06:44:50 AM 38.8144 -90.2089 North 258 297 5,700 2,400 Climbing FAA TRACON SMA TRACON (SMA)
Mon 06:45:00 AM 38.8551 -90.2000 North  Level FlightAware Approximate
Mon 06:45:10 AM 38.8369 -90.2053 North 266 306 6,500  Level FAA TRACON SMA TRACON (SMA)
Mon 06:45:30 AM 38.8597 -90.2014 North 267 307 7,300 2,550 Climbing FAA TRACON SMA TRACON (SMA)
Mon 06:45:50 AM 38.8894 -90.1969 North 275 316 8,200 2,400 Climbing FAA TRACON SMA TRACON (SMA)
Mon 06:46:00 AM 38.9381 -90.2000 North  Level FlightAware Approximate
Mon 06:46:10 AM 38.9133 -90.1936 North 280 322 8,900  Level FAA TRACON SMA TRACON (SMA)
Mon 06:46:30 AM 38.9378 -90.1897 North 285 328 9,700 2,100 Climbing FAA TRACON SMA TRACON (SMA)
Mon 06:46:50 AM 38.9686 -90.1842 North 291 335 10,300 1,500 Climbing FAA TRACON SMA TRACON (SMA)
Mon 06:47:00 AM 39.0211 -90.2004 356° North  Level FlightAware Approximate
Mon 06:47:10 AM 38.9947 -90.1806 North 303 349 10,700  Level FAA TRACON SMA TRACON (SMA)
Mon 06:47:29 AM 39.0222 -90.1750 North 318 366 11,000 1,050 Climbing FAA TRACON SMA TRACON (SMA)
Mon 06:47:50 AM 39.0578 -90.1694 North 335 386 11,400 1,024 Climbing FAA TRACON SMA TRACON (SMA)
Mon 06:48:10 AM 39.0875 -90.1656 North 346 398 11,700 1,050 Climbing FAA TRACON SMA TRACON (SMA)
Mon 06:48:30 AM 39.1175 -90.1597 North 353 406 12,100 1,500 Climbing FAA TRACON SMA TRACON (SMA)
Mon 06:48:50 AM 39.1561 -90.1536 North 362 417 12,700 1,800 Climbing FAA TRACON SMA TRACON (SMA)
Mon 06:49:10 AM 39.1867 -90.1494 North 362 417 13,300 1,800 Climbing FAA TRACON SMA TRACON (SMA)
Mon 06:49:30 AM 39.2172 -90.1444 North 360 414 13,900 2,100 Climbing FAA TRACON SMA TRACON (SMA)
Mon 06:49:50 AM 39.2547 -90.1389 North 356 410 14,700 2,100 Climbing FAA TRACON SMA TRACON (SMA)
Mon 06:50:10 AM 39.2839 -90.1306 12° North 352 405 15,300 1,800 Climbing FAA TRACON SMA TRACON (SMA)
Mon 06:50:30 AM 39.3142 -90.1275 North 350 403 15,900 1,950 Climbing FAA TRACON SMA TRACON (SMA)
Mon 06:50:50 AM 39.3508 -90.1214 North 346 398 16,600 1,950 Climbing FAA TRACON SMA TRACON (SMA)
Mon 06:51:10 AM 39.3806 -90.1172 North 344 396 17,200 1,650 Climbing FAA TRACON SMA TRACON (SMA)
Mon 06:51:30 AM 39.4097 -90.1125 North 344 396 17,700 1,800 Climbing FAA TRACON SMA TRACON (SMA)
Mon 06:51:50 AM 39.4458 -90.1061 North 342 394 18,400 1,950 Climbing FAA TRACON SMA TRACON (SMA)
Mon 06:52:10 AM 39.4750 -90.1022 North 341 392 19,000 1,800 Climbing FAA TRACON SMA TRACON (SMA)
Mon 06:53:10 AM 39.5678 -90.0772 12° North 342 394 20,800 1,500 Climbing FAA TRACON SMA TRACON (SMA)
Mon 06:53:30 AM 39.5972 -90.0694 12° North 349 402 21,000 308 Climbing FAA TRACON SMA TRACON (SMA)
Mon 06:53:49 AM 39.6350 -90.0556 16° North 364 419 21,000  Level FAA TRACON SMA TRACON (SMA)
Mon 06:54:10 AM 39.6667 -90.0433 17° North 379 436 21,000  Level FAA TRACON SMA TRACON (SMA)
Mon 06:54:30 AM 39.7003 -90.0364 North 393 452 21,000  Level FAA TRACON SMA TRACON (SMA)
Mon 06:54:50 AM 39.7081 -90.0317 25° Northeast 396 456 21,000  Level FAA TRACON SMA TRACON (SMA)
Mon 06:55:12 AM 39.7694 -90.0661 337° Northwest 394 453 21,000  Level Kansas City Center
Mon 06:56:12 AM 39.8836 -90.0297 14° North 413 475 21,000  Level Kansas City Center
Mon 06:56:58 AM 39.9764 -89.9994 14° North 429 494 21,000  Level Chicago Center
Mon 06:57:58 AM 40.0906 -89.9600 15° North 424 488 21,000  Level Chicago Center
Mon 06:58:59 AM 40.2036 -89.9203 15° North 422 486 21,000  Level Chicago Center
Mon 07:00:00 AM 40.3181 -89.8814 15° North 423 487 21,000  Level Chicago Center
Mon 07:01:00 AM 40.4294 -89.8436 14° North 416 479 21,000  Level Chicago Center
Mon 07:02:01 AM 40.5489 -89.7894 19° North 419 482 21,000  Level Chicago Center
Mon 07:03:02 AM 40.6344 -89.6878 42° Northeast 413 475 21,000  Level Chicago Center
Mon 07:04:02 AM 40.7211 -89.5806 43° Northeast 423 487 21,000  Level Chicago Center
Mon 07:05:03 AM 40.8100 -89.4672 44° Northeast 423 487 21,000  Level Chicago Center
Mon 07:06:04 AM 40.8947 -89.3606 44° Northeast 422 486 21,000  Level Chicago Center
Mon 07:07:04 AM 40.9792 -89.2533 44° Northeast 422 486 21,000 -248 Level Chicago Center
Mon 07:08:05 AM 41.0578 -89.1517 44° Northeast 419 482 20,500 -1,328 Descending Chicago Center
Mon 07:09:06 AM 41.1392 -89.0483 44° Northeast 409 471 18,300 -2,066 Descending Chicago Center
Mon 07:10:07 AM 41.2161 -88.9481 44° Northeast 393 452 16,300 -2,164 Descending Chicago Center
Mon 07:11:08 AM 41.2878 -88.8528 45° Northeast 370 426 13,900 -2,331 Descending Chicago Center
Mon 07:12:08 AM 41.3603 -88.7594 44° Northeast 364 419 11,600 -1,438 Descending Chicago Center
Mon 07:13:09 AM 41.4453 -88.6486 44° Northeast 355 409 11,000 -295 Descending Chicago Center
Mon 07:14:10 AM 41.5169 -88.5536 45° Northeast 362 417 11,000 -98 Level Chicago Center
Mon 07:15:11 AM 41.5906 -88.4583 44° Northeast 367 422 10,800 -492 Descending Chicago Center
Mon 07:16:12 AM 41.6622 -88.3642 44° Northeast 361 415 10,000 -393 Descending Chicago Center
Mon 07:17:13 AM 41.7272 -88.2631 49° Northeast 357 411 10,000 -295 Level Chicago Center
Mon 07:18:14 AM 41.7817 -88.1694 52° Northeast 313 360 9,400 -1,230 Descending Chicago Center
Mon 07:19:15 AM 41.8333 -88.0903 49° Northeast 286 329 7,500 -1,180 Descending Chicago Center
Mon 07:20:16 AM 41.9069 -88.0914 359° North 265 305 7,000 -319 Descending Chicago Center
Mon 07:20:49 AM 41.9500 -88.1000 352° North 267 307 7,000 -659 Level Chicago TRACON
Mon 07:21:38 AM 42.0000 -88.1000 360° North 234 269 6,100 -1,213 Descending Chicago TRACON
Mon 07:22:18 AM 42.0356 -88.1253 332° Northwest 232 267 5,200 -1,583 Descending Chicago Center
Mon 07:22:50 AM 42.0833 -88.1167 North 246 283 4,200 -1,395 Descending Chicago TRACON
Mon 07:23:44 AM 42.0833 -88.0500 90° East 219 252 3,200 -1,000 Descending Chicago TRACON
Mon 07:24:38 AM 42.0667 -88.0167 124° Southeast 180 207 2,400 -889 Descending Chicago TRACON

Login

Don't have an account? Register now (free) for customized features, flight alerts, and more!